Hauptseite
METAR-TAF:

METAR-TAF

Flughäfen :

Flughafen Bagdad

Bagdad, Irak

Breite: 33-15-45N, Länge: 44-14-04E, Höhe: 35 m

Beobachtung

Neuester Wetterbericht von vor 1 Stunde und 38 Minuten, um 11:00 UTC
Wind 7 kt aus unterschiedlichen Richtungen
Temperatur 28°C
Luftfeuchtigkeit 14%
Luftdruck 1014 hPa
Sichtweite 10 km oder mehr
Leicht bewölkt in der Höhe von 3000 ft

METAR: ORBI 261100Z VRB07KT 9999 FEW030 28/M02 Q1014 NOSIG

Zeit: 15:38 (12:38 UTC)

Prognose

Neuester Wetterbericht von vor 2 Stunden und 38 Minuten, um 10:00 UTC
Gültige Prognose vom 26 um 12 UTC bis 27 um 12 UTC
Wind 10 kt aus West/Nordwest
Sichtweite 10 km oder mehr
keine Wolken unter 1500 m und keine Kumulonimbus oder Gewitterwolken

TAF: ORBI 261000Z 2612/2712 30010KT CAVOK

Wetterbeobachtungen und Prognosen von mehr als 4000 Flughäfen (METAR und TAF Bericht).

Die verfügbaren Stationen werden durch gelbe und rote Markierungen auf der Karte dargestellt.

Führen Sie die Maus auf sie, um den Namen der Station zu sehen.

Darauf klicken, um die Beobachtung von Wetterbeobachtungen und Prognosen zu sehen.

Um die Karte zu ändern : klicken Sie auf den grünen Tasten mit einem schwarzen Kreuz Zum Vergrößern, auf den grünen Button mit einem Gedankenstrich zu verkleinern, oder auf die grünen Pfeile für benachbarte Karten.


METAR-TAF: